createdAt,value
2019-04-05T00:00:45.885Z,8.82
2019-04-05T00:05:51.358Z,8.87
2019-04-05T00:10:56.843Z,8.86
2019-04-05T00:16:02.457Z,8.91
2019-04-05T00:21:07.865Z,8.98
2019-04-05T00:26:13.316Z,9.06
2019-04-05T00:31:18.737Z,9.07
2019-04-05T00:36:24.215Z,9.04
2019-04-05T00:41:29.727Z,9.05
2019-04-05T00:46:35.211Z,9.02
2019-04-05T00:51:40.820Z,9.01
2019-04-05T00:56:46.355Z,8.98
2019-04-05T01:01:51.899Z,8.97
2019-04-05T01:06:57.611Z,8.98
2019-04-05T01:12:04.749Z,9.02
2019-04-05T01:17:10.425Z,9.03
2019-04-05T01:22:16.081Z,9.04
2019-04-05T01:27:21.595Z,9.06
2019-04-05T01:32:27.343Z,9.11
2019-04-05T01:37:33.071Z,9.16
2019-04-05T01:42:39.038Z,9.18
2019-04-05T01:47:44.448Z,9.16
2019-04-05T01:52:49.866Z,9.11
2019-04-05T01:57:55.332Z,9.11
2019-04-05T02:03:02.110Z,9.10
2019-04-05T02:08:07.561Z,9.13
2019-04-05T02:13:13.050Z,9.13
2019-04-05T02:18:18.509Z,9.08
2019-04-05T02:23:23.933Z,9.05
2019-04-05T02:28:29.428Z,9.05
2019-04-05T02:33:34.925Z,9.06
2019-04-05T02:38:40.416Z,9.08
2019-04-05T02:43:46.071Z,9.10
2019-04-05T02:48:51.495Z,9.11
2019-04-05T02:53:57.262Z,9.08
2019-04-05T02:59:02.720Z,9.05
2019-04-05T03:04:08.174Z,8.99
2019-04-05T03:09:13.603Z,8.93
2019-04-05T03:14:19.442Z,8.92
2019-04-05T03:19:29.712Z,8.89
2019-04-05T03:24:36.345Z,8.89
2019-04-05T03:29:41.949Z,8.86
2019-04-05T03:34:47.602Z,8.88
2019-04-05T03:39:53.096Z,8.90
2019-04-05T03:44:58.572Z,8.91
2019-04-05T03:50:04.118Z,8.94
2019-04-05T03:55:09.588Z,8.96
2019-04-05T04:00:15.021Z,8.97
2019-04-05T04:05:20.418Z,8.97
2019-04-05T04:10:25.926Z,8.97
2019-04-05T04:15:31.519Z,8.96
2019-04-05T04:20:44.031Z,8.97
2019-04-05T04:25:49.443Z,8.96
2019-04-05T04:30:54.919Z,8.95
2019-04-05T04:36:00.372Z,8.93
2019-04-05T04:41:05.822Z,8.93
2019-04-05T04:46:11.243Z,8.91
2019-04-05T04:51:16.651Z,8.90
2019-04-05T04:56:22.156Z,8.83
2019-04-05T05:01:27.587Z,8.77
2019-04-05T05:06:33.095Z,8.78
2019-04-05T05:11:38.590Z,8.77
2019-04-05T05:16:44.059Z,8.76
2019-04-05T05:21:49.545Z,8.75
2019-04-05T05:26:55.147Z,8.76
2019-04-05T05:32:00.598Z,8.81
2019-04-05T05:37:06.048Z,8.91
2019-04-05T05:42:11.568Z,8.96
2019-04-05T05:47:17.157Z,9.03
2019-04-05T05:52:22.902Z,9.14
2019-04-05T05:57:28.506Z,9.30
2019-04-05T06:02:33.930Z,9.49
2019-04-05T06:07:39.340Z,9.70
2019-04-05T06:12:44.870Z,9.93
2019-04-05T06:17:50.522Z,10.16
2019-04-05T06:22:55.957Z,10.40
2019-04-05T06:28:02.731Z,10.63
2019-04-05T06:33:08.259Z,10.84
2019-04-05T06:38:13.698Z,11.00
2019-04-05T06:43:19.255Z,11.10
2019-04-05T06:48:24.783Z,11.17
2019-04-05T06:53:30.213Z,11.29
2019-04-05T06:58:35.695Z,11.46
2019-04-05T07:03:41.102Z,11.81
2019-04-05T07:08:53.537Z,12.33
2019-04-05T07:13:53.725Z,12.94
2019-04-05T07:18:59.164Z,13.46
2019-04-05T07:24:04.637Z,13.83
2019-04-05T07:29:10.093Z,14.10
2019-04-05T07:34:15.556Z,14.45
2019-04-05T07:39:20.955Z,14.98
2019-04-05T07:44:26.415Z,15.61
2019-04-05T07:49:31.845Z,16.32
2019-04-05T07:54:37.315Z,18.03
2019-04-05T07:59:42.845Z,18.72
2019-04-05T08:04:48.316Z,19.06
2019-04-05T08:09:53.802Z,19.21
2019-04-05T08:14:59.239Z,19.25
2019-04-05T08:20:04.693Z,19.36
2019-04-05T08:25:10.179Z,19.64
2019-04-05T08:30:15.664Z,20.50
2019-04-05T08:35:21.120Z,21.79
2019-04-05T08:40:26.639Z,22.64
2019-04-05T08:45:32.132Z,22.78
2019-04-05T08:50:37.651Z,22.68
2019-04-05T08:55:43.102Z,21.36
2019-04-05T09:00:48.711Z,19.82
2019-04-05T09:05:54.229Z,18.70
2019-04-05T09:10:59.655Z,17.95
2019-04-05T09:16:05.189Z,17.71
2019-04-05T09:21:10.719Z,17.68
2019-04-05T09:26:16.313Z,17.07
2019-04-05T09:31:21.785Z,16.54
2019-04-05T09:36:27.197Z,15.96
2019-04-05T09:41:32.649Z,16.13
2019-04-05T09:46:46.468Z,16.83
2019-04-05T09:51:45.461Z,17.42
2019-04-05T09:56:50.851Z,17.40
2019-04-05T10:01:56.333Z,16.85
2019-04-05T10:07:01.806Z,16.41
2019-04-05T10:12:07.249Z,16.24
2019-04-05T10:17:14.590Z,16.11
2019-04-05T10:22:20.092Z,16.09
2019-04-05T10:27:25.531Z,16.33
2019-04-05T10:32:31.246Z,16.66
2019-04-05T10:37:36.661Z,16.82
2019-04-05T10:42:42.115Z,17.07
2019-04-05T10:47:47.568Z,17.34
2019-04-05T10:52:53.242Z,17.55
2019-04-05T10:57:58.684Z,17.38
2019-04-05T11:03:04.121Z,17.13
2019-04-05T11:08:09.620Z,16.64
2019-04-05T11:13:15.050Z,16.06
2019-04-05T11:18:20.483Z,15.61
2019-04-05T11:23:25.927Z,15.28
2019-04-05T11:28:31.386Z,14.99
2019-04-05T11:33:36.840Z,14.79
2019-04-05T11:38:42.780Z,14.65
2019-04-05T11:43:48.250Z,14.57
2019-04-05T11:48:53.697Z,14.73
2019-04-05T11:53:59.189Z,15.01
2019-04-05T11:59:06.887Z,15.09
2019-04-05T12:04:12.295Z,15.01
2019-04-05T12:09:17.742Z,14.92
2019-04-05T12:14:30.146Z,15.05
2019-04-05T12:19:30.399Z,15.26
2019-04-05T12:24:35.823Z,15.43
2019-04-05T12:29:41.369Z,15.29
2019-04-05T12:34:46.979Z,15.32
2019-04-05T12:39:52.458Z,15.39
2019-04-05T12:44:57.957Z,15.30
2019-04-05T12:50:03.503Z,15.22
2019-04-05T12:55:08.952Z,15.03
2019-04-05T13:00:15.268Z,14.98
2019-04-05T13:05:21.728Z,14.92
2019-04-05T13:10:30.326Z,14.68
2019-04-05T13:15:34.802Z,14.47
2019-04-05T13:20:40.525Z,14.30
2019-04-05T13:25:46.221Z,14.29
2019-04-05T13:30:51.854Z,14.38
2019-04-05T13:35:57.277Z,14.45
2019-04-05T13:41:02.906Z,14.61
2019-04-05T13:46:21.020Z,14.53
2019-04-05T13:51:27.293Z,14.51
2019-04-05T13:56:23.110Z,14.66
2019-04-05T14:01:28.708Z,14.63
2019-04-05T14:06:34.334Z,14.43
2019-04-05T14:11:40.134Z,14.24
2019-04-05T14:16:45.804Z,14.24
2019-04-05T14:21:53.554Z,14.13
2019-04-05T14:26:59.044Z,14.08
2019-04-05T14:32:20.558Z,14.08
2019-04-05T14:37:14.072Z,14.14
2019-04-05T14:42:19.788Z,14.26
2019-04-05T14:47:27.786Z,14.43
2019-04-05T14:52:32.922Z,14.48
2019-04-05T14:57:38.423Z,14.38
2019-04-05T15:02:44.108Z,14.33
2019-04-05T15:07:51.165Z,14.10
2019-04-05T15:13:00.040Z,13.99
2019-04-05T15:18:04.508Z,13.86
2019-04-05T15:23:13.762Z,13.92
2019-04-05T15:28:17.199Z,13.91
2019-04-05T15:33:22.752Z,13.85
2019-04-05T15:38:31.248Z,13.76
2019-04-05T15:43:35.708Z,13.61
2019-04-05T15:48:41.129Z,13.40
2019-04-05T15:53:47.749Z,13.21
2019-04-05T15:58:55.319Z,13.12
2019-04-05T16:04:03.317Z,13.17
2019-04-05T16:09:12.962Z,13.10
2019-04-05T16:14:22.139Z,13.05
2019-04-05T16:19:27.684Z,13.03
2019-04-05T16:24:33.285Z,13.00
2019-04-05T16:29:38.767Z,12.99
2019-04-05T16:34:44.236Z,13.03
2019-04-05T16:39:49.672Z,12.94
2019-04-05T16:44:55.314Z,12.86
2019-04-05T16:50:00.910Z,12.83
2019-04-05T16:55:06.790Z,12.80
2019-04-05T17:00:12.829Z,12.71
2019-04-05T17:05:18.232Z,12.68
2019-04-05T17:10:23.886Z,12.69
2019-04-05T17:15:29.459Z,12.63
2019-04-05T17:20:35.158Z,12.56
2019-04-05T17:25:40.602Z,12.54
2019-04-05T17:30:46.222Z,12.51
2019-04-05T17:35:51.757Z,12.41
2019-04-05T17:40:57.227Z,12.34
2019-04-05T17:46:02.694Z,12.31
2019-04-05T17:51:08.180Z,12.32
2019-04-05T17:56:13.598Z,12.33
2019-04-05T18:01:19.150Z,12.30
2019-04-05T18:06:24.611Z,12.24
2019-04-05T18:11:30.177Z,12.21
2019-04-05T18:16:35.939Z,12.18
2019-04-05T18:21:41.424Z,12.11
2019-04-05T18:26:47.158Z,12.00
2019-04-05T18:31:53.228Z,11.99
2019-04-05T18:36:58.717Z,12.00
2019-04-05T18:42:04.301Z,12.07
2019-04-05T18:47:14.069Z,12.05
2019-04-05T18:52:19.597Z,12.02
2019-04-05T18:57:25.055Z,12.01
2019-04-05T19:02:30.524Z,12.03
2019-04-05T19:07:35.967Z,12.07
2019-04-05T19:12:41.649Z,12.03
2019-04-05T19:17:47.242Z,12.01
2019-04-05T19:22:52.660Z,11.97
2019-04-05T19:27:58.072Z,11.91
2019-04-05T19:53:32.471Z,11.76
2019-04-05T19:58:37.910Z,11.76
2019-04-05T20:03:43.538Z,11.79
2019-04-05T20:08:48.939Z,11.81
2019-04-05T20:13:54.376Z,11.84
2019-04-05T20:18:59.857Z,11.86
2019-04-05T20:24:13.713Z,11.88
2019-04-05T20:29:12.636Z,11.92
2019-04-05T20:34:18.041Z,11.88
2019-04-05T20:39:23.551Z,11.85
2019-04-05T20:44:29.103Z,11.77
2019-04-05T20:49:34.661Z,11.76
2019-04-05T20:54:40.149Z,11.70
2019-04-05T20:59:45.580Z,11.62
2019-04-05T21:04:51.080Z,11.64
2019-04-05T21:09:56.512Z,11.62
2019-04-05T21:15:02.012Z,11.61
2019-04-05T21:20:07.720Z,11.59
2019-04-05T21:25:14.702Z,11.54
2019-04-05T21:30:21.422Z,11.53
2019-04-05T21:35:26.885Z,11.52
2019-04-05T21:40:32.331Z,11.55
2019-04-05T21:45:37.743Z,11.56
2019-04-05T21:50:43.166Z,11.60
2019-04-05T21:55:48.609Z,11.64
2019-04-05T22:01:02.026Z,11.71
2019-04-05T22:06:07.497Z,11.72
2019-04-05T22:11:12.909Z,11.70
2019-04-05T22:16:18.324Z,11.63
2019-04-05T22:21:23.797Z,11.56
2019-04-05T22:26:29.268Z,11.59
2019-04-05T22:31:34.847Z,11.61
2019-04-05T22:36:40.272Z,11.60
2019-04-05T22:41:45.778Z,11.56
2019-04-05T22:46:51.221Z,11.53
2019-04-05T22:51:56.731Z,11.53
2019-04-05T22:57:02.326Z,11.56
2019-04-05T23:02:07.798Z,11.58
2019-04-05T23:07:13.268Z,11.60
2019-04-05T23:12:18.697Z,11.66
2019-04-05T23:17:24.200Z,11.70
2019-04-05T23:22:29.655Z,11.66
2019-04-05T23:27:35.074Z,11.69
2019-04-05T23:32:40.575Z,11.73
2019-04-05T23:37:46.080Z,11.77
2019-04-05T23:42:51.533Z,11.75
2019-04-05T23:47:56.973Z,11.77
2019-04-05T23:53:02.421Z,11.78
2019-04-05T23:58:07.957Z,11.79
